Terminal Aerodrome Forecast
Issued by NWS Charleston, WV

Current Version | Previous Version | Graphics & Text | Print | Product List | Glossary On
Versions: 1 2 3 4 5 6 7 8 9 10 11 12 13 14 15 16 17 18 19 20 21 22
000
FTUS41 KRLX 151802 AAA
TAFBKW
TAF AMD
KBKW 151802Z 1518/1618 27012G22KT P6SM OVC020
     FM152000 28009KT P6SM BKN025
     FM152300 28008KT P6SM SCT030
     FM160200 29008KT P6SM BKN030
     FM160800 28008KT P6SM SCT025
     FM161600 26008KT P6SM FEW250=

USA.gov is the U.S. government's official web portal to all federal, state and local government web resources and services.